createdAt,value
2018-06-16T00:02:19.283Z,13.70
2018-06-16T00:04:51.216Z,13.60
2018-06-16T00:07:22.996Z,14.00
2018-06-16T00:09:55.009Z,14.00
2018-06-16T00:12:26.831Z,14.10
2018-06-16T00:14:58.671Z,14.10
2018-06-16T00:17:30.508Z,14.00
2018-06-16T00:20:02.376Z,14.00
2018-06-16T00:22:34.199Z,13.90
2018-06-16T00:25:06.399Z,13.50
2018-06-16T00:27:38.169Z,13.20
2018-06-16T00:30:10.123Z,13.40
2018-06-16T00:32:42.256Z,13.50
2018-06-16T00:35:14.075Z,13.50
2018-06-16T00:37:45.870Z,13.50
2018-06-16T00:40:17.620Z,13.80
2018-06-16T00:42:49.408Z,13.50
2018-06-16T00:45:22.064Z,13.30
2018-06-16T00:47:53.868Z,13.30
2018-06-16T00:50:25.695Z,13.20
2018-06-16T00:52:57.505Z,12.90
2018-06-16T00:55:29.368Z,12.80
2018-06-16T00:58:01.096Z,13.00
2018-06-16T01:00:32.902Z,13.10
2018-06-16T01:03:04.979Z,12.70
2018-06-16T01:05:36.968Z,12.70
2018-06-16T01:08:08.997Z,12.70
2018-06-16T01:10:41.030Z,12.70
2018-06-16T01:13:12.939Z,12.80
2018-06-16T01:15:44.979Z,12.70
2018-06-16T01:18:16.857Z,12.50
2018-06-16T01:20:48.810Z,12.30
2018-06-16T01:23:20.731Z,12.20
2018-06-16T01:25:52.659Z,12.20
2018-06-16T01:28:24.628Z,12.50
2018-06-16T01:30:56.628Z,12.50
2018-06-16T01:33:28.667Z,12.20
2018-06-16T01:38:32.115Z,12.20
2018-06-16T01:41:04.136Z,12.40
2018-06-16T01:43:36.095Z,12.60
2018-06-16T01:46:08.118Z,12.50
2018-06-16T01:48:40.038Z,12.70
2018-06-16T01:51:12.041Z,12.80
2018-06-16T01:53:43.922Z,12.80
2018-06-16T01:56:15.875Z,13.30
2018-06-16T01:58:47.791Z,13.20
2018-06-16T02:01:19.959Z,12.80
2018-06-16T02:06:22.907Z,12.90
2018-06-16T02:08:54.673Z,13.20
2018-06-16T02:11:26.456Z,13.00
2018-06-16T02:13:58.288Z,13.00
2018-06-16T02:16:30.122Z,12.90
2018-06-16T02:21:33.120Z,12.80
2018-06-16T02:24:04.808Z,12.90
2018-06-16T02:26:36.575Z,12.80
2018-06-16T02:29:08.316Z,12.60
2018-06-16T02:31:40.063Z,12.30
2018-06-16T02:34:11.812Z,12.40
2018-06-16T02:41:46.417Z,12.30
2018-06-16T02:44:18.231Z,12.50
2018-06-16T02:46:50.089Z,12.60
2018-06-16T02:49:21.897Z,12.60
2018-06-16T02:51:53.785Z,12.70
2018-06-16T02:54:25.528Z,12.30
2018-06-16T02:56:57.396Z,12.10
2018-06-16T02:59:29.171Z,12.10
2018-06-16T03:02:00.976Z,12.10
2018-06-16T03:04:32.889Z,12.30
2018-06-16T03:07:04.794Z,12.50
2018-06-16T03:09:36.776Z,12.30
2018-06-16T03:12:08.902Z,12.20
2018-06-16T03:14:40.729Z,12.20
2018-06-16T03:17:12.695Z,12.20
2018-06-16T03:19:44.588Z,12.40
2018-06-16T03:22:16.478Z,12.60
2018-06-16T03:24:48.340Z,12.30
2018-06-16T03:29:51.427Z,12.10
2018-06-16T03:32:23.317Z,12.20
2018-06-16T03:34:55.187Z,12.30
2018-06-16T03:37:27.079Z,12.40
2018-06-16T03:39:58.928Z,12.40
2018-06-16T03:42:30.878Z,12.60
2018-06-16T03:45:02.709Z,12.50
2018-06-16T03:47:34.676Z,12.20
2018-06-16T03:50:06.818Z,12.50
2018-06-16T03:52:38.838Z,12.50
2018-06-16T03:55:10.667Z,12.50
2018-06-16T03:57:42.651Z,12.50
2018-06-16T04:00:14.479Z,12.70
2018-06-16T04:02:46.508Z,12.80
2018-06-16T04:05:18.438Z,12.80
2018-06-16T04:07:50.422Z,12.70
2018-06-16T04:10:22.309Z,12.70
2018-06-16T04:12:54.199Z,12.90
2018-06-16T04:15:26.220Z,12.80
2018-06-16T04:20:29.390Z,12.60
2018-06-16T04:23:01.278Z,12.80
2018-06-16T04:25:33.107Z,12.70
2018-06-16T04:28:05.056Z,12.70
2018-06-16T04:30:37.017Z,12.90
2018-06-16T04:33:09.117Z,12.70
2018-06-16T04:35:41.075Z,12.70
2018-06-16T04:38:13.227Z,12.90
2018-06-16T04:40:45.202Z,12.90
2018-06-16T04:43:17.195Z,12.80
2018-06-16T04:45:49.111Z,13.10
2018-06-16T04:48:21.155Z,12.90
2018-06-16T04:50:53.089Z,12.90
2018-06-16T04:53:25.096Z,12.80
2018-06-16T04:55:56.948Z,12.70
2018-06-16T04:58:28.949Z,12.90
2018-06-16T05:01:00.867Z,13.00
2018-06-16T05:03:32.879Z,13.00
2018-06-16T05:06:04.868Z,13.00
2018-06-16T05:08:36.875Z,13.10
2018-06-16T05:11:08.900Z,13.20
2018-06-16T05:13:41.255Z,13.30
2018-06-16T05:16:13.176Z,13.30
2018-06-16T05:18:45.127Z,13.10
2018-06-16T05:21:17.039Z,13.00
2018-06-16T05:23:49.039Z,13.10
2018-06-16T05:26:20.886Z,13.10
2018-06-16T05:28:52.800Z,13.30
2018-06-16T05:31:24.643Z,13.00
2018-06-16T05:33:56.619Z,13.10
2018-06-16T05:36:28.523Z,13.30
2018-06-16T05:39:00.439Z,13.50
2018-06-16T05:41:32.346Z,13.50
2018-06-16T05:44:04.748Z,13.60
2018-06-16T05:46:36.844Z,13.80
2018-06-16T05:49:09.036Z,13.70
2018-06-16T05:51:40.986Z,13.60
2018-06-16T05:54:13.461Z,13.40
2018-06-16T05:56:45.413Z,13.60
2018-06-16T05:59:17.402Z,13.70
2018-06-16T06:01:49.316Z,13.80
2018-06-16T06:04:21.264Z,13.80
2018-06-16T06:06:53.264Z,13.90
2018-06-16T06:09:25.579Z,14.00
2018-06-16T06:11:57.467Z,14.10
2018-06-16T06:14:29.537Z,14.00
2018-06-16T06:17:01.997Z,14.00
2018-06-16T06:19:33.983Z,14.00
2018-06-16T06:22:06.065Z,14.10
2018-06-16T06:24:38.037Z,14.40
2018-06-16T06:27:09.963Z,14.40
2018-06-16T06:29:41.936Z,14.40
2018-06-16T06:32:14.088Z,14.60
2018-06-16T06:34:46.232Z,14.70
2018-06-16T06:37:18.396Z,14.80
2018-06-16T06:39:50.471Z,14.80
2018-06-16T06:42:22.598Z,14.90
2018-06-16T06:44:54.656Z,15.00
2018-06-16T06:47:26.676Z,15.10
2018-06-16T06:49:58.658Z,15.20
2018-06-16T06:52:30.588Z,15.10
2018-06-16T06:55:02.598Z,14.90
2018-06-16T06:57:34.536Z,15.00
2018-06-16T07:00:06.637Z,15.20
2018-06-16T07:02:38.637Z,15.30
2018-06-16T07:05:10.856Z,15.40
2018-06-16T07:07:42.836Z,15.50
2018-06-16T07:10:14.880Z,15.70
2018-06-16T07:12:46.817Z,15.80
2018-06-16T07:15:18.773Z,15.90
2018-06-16T07:17:50.756Z,15.90
2018-06-16T07:20:22.747Z,15.80
2018-06-16T07:22:54.756Z,15.90
2018-06-16T07:25:26.877Z,15.80
2018-06-16T07:27:58.776Z,15.90
2018-06-16T07:33:02.085Z,16.10
2018-06-16T07:35:34.012Z,16.30
2018-06-16T07:38:05.976Z,16.30
2018-06-16T07:40:37.963Z,16.50
2018-06-16T07:43:10.018Z,16.50
2018-06-16T07:45:42.099Z,16.80
2018-06-16T07:48:14.089Z,16.80
2018-06-16T07:50:46.072Z,16.80
2018-06-16T07:53:18.008Z,17.10
2018-06-16T07:55:50.028Z,16.90
2018-06-16T07:58:22.015Z,17.10
2018-06-16T08:00:54.208Z,17.30
2018-06-16T08:03:26.171Z,17.30
2018-06-16T08:08:29.368Z,17.70
2018-06-16T08:11:01.252Z,17.70
2018-06-16T08:13:33.109Z,17.70
2018-06-16T08:16:05.037Z,17.90
2018-06-16T08:18:37.315Z,17.80
2018-06-16T08:21:09.165Z,17.70
2018-06-16T08:23:41.017Z,17.80
2018-06-16T08:26:12.976Z,17.90
2018-06-16T08:28:45.149Z,18.30
2018-06-16T08:31:17.286Z,18.50
2018-06-16T08:33:49.096Z,18.60
2018-06-16T08:36:21.367Z,18.50
2018-06-16T08:38:53.276Z,18.50
2018-06-16T08:41:25.268Z,18.70
2018-06-16T08:43:57.069Z,18.70
2018-06-16T08:46:28.953Z,18.80
2018-06-16T08:49:00.865Z,19.00
2018-06-16T08:51:32.892Z,19.00
2018-06-16T08:54:04.833Z,19.30
2018-06-16T08:56:36.767Z,19.50
2018-06-16T08:59:08.647Z,19.70
2018-06-16T09:01:40.508Z,19.70
2018-06-16T09:04:12.337Z,19.90
2018-06-16T09:06:44.205Z,19.80
2018-06-16T09:11:47.993Z,19.80
2018-06-16T09:14:20.062Z,19.90
2018-06-16T09:16:51.982Z,20.20
2018-06-16T09:19:23.920Z,20.30
2018-06-16T09:21:56.207Z,20.20
2018-06-16T09:24:28.127Z,20.20
2018-06-16T09:27:00.176Z,20.40
2018-06-16T09:29:32.083Z,20.50
2018-06-16T09:34:35.186Z,20.70
2018-06-16T09:37:07.127Z,20.80
2018-06-16T09:39:39.076Z,20.70
2018-06-16T09:42:10.995Z,20.80
2018-06-16T09:44:42.847Z,20.90
2018-06-16T09:47:14.658Z,21.00
2018-06-16T09:52:18.089Z,21.30
2018-06-16T09:54:49.996Z,21.20
2018-06-16T09:57:21.877Z,21.40
2018-06-16T09:59:53.988Z,21.60
2018-06-16T10:02:25.968Z,21.50
2018-06-16T10:04:58.135Z,21.50
2018-06-16T10:07:30.396Z,21.60
2018-06-16T10:12:33.509Z,21.80
2018-06-16T10:15:05.437Z,21.90
2018-06-16T10:17:37.755Z,21.70
2018-06-16T10:20:09.808Z,21.90
2018-06-16T10:22:41.657Z,22.10
2018-06-16T10:25:13.548Z,22.10
2018-06-16T10:27:45.468Z,22.00
2018-06-16T10:30:17.367Z,22.20
2018-06-16T10:32:49.967Z,22.30
2018-06-16T10:35:22.107Z,22.50
2018-06-16T10:37:54.016Z,22.40
2018-06-16T10:40:26.159Z,22.50
2018-06-16T10:42:58.507Z,22.60
2018-06-16T10:45:30.396Z,22.70
2018-06-16T10:48:02.417Z,22.80
2018-06-16T10:50:34.373Z,22.90
2018-06-16T10:53:06.319Z,23.00
2018-06-16T10:55:38.549Z,23.20
2018-06-16T10:58:10.553Z,23.10
2018-06-16T11:00:42.659Z,22.80
2018-06-16T11:03:14.936Z,23.10
2018-06-16T11:05:47.007Z,23.20
2018-06-16T11:08:18.901Z,23.30
2018-06-16T11:10:50.957Z,23.50
2018-06-16T11:13:23.149Z,23.50
2018-06-16T11:15:55.417Z,23.60
2018-06-16T11:18:27.404Z,23.90
2018-06-16T11:20:59.446Z,23.60
2018-06-16T11:23:31.542Z,23.60
2018-06-16T11:26:03.567Z,23.70
2018-06-16T11:31:07.456Z,23.90
2018-06-16T11:33:39.411Z,23.80
2018-06-16T11:36:11.362Z,24.00
2018-06-16T11:38:43.709Z,23.90
2018-06-16T11:41:15.576Z,24.00
2018-06-16T11:43:47.509Z,24.30
2018-06-16T11:46:19.769Z,24.30
2018-06-16T11:48:51.775Z,24.60
2018-06-16T11:51:23.588Z,24.80
2018-06-16T11:53:55.888Z,24.30
2018-06-16T11:56:27.901Z,24.40
2018-06-16T11:58:59.868Z,24.40
2018-06-16T12:01:31.920Z,24.60
2018-06-16T12:04:03.839Z,24.80
2018-06-16T12:06:35.623Z,25.00
2018-06-16T12:11:42.704Z,24.80
2018-06-16T12:14:14.768Z,25.00
2018-06-16T12:16:46.827Z,25.00
2018-06-16T12:19:18.821Z,24.80
2018-06-16T12:21:50.896Z,25.10
2018-06-16T12:24:23.247Z,25.30
2018-06-16T12:26:55.385Z,25.60
2018-06-16T12:29:27.515Z,25.60
2018-06-16T12:31:59.827Z,25.60
2018-06-16T12:34:31.864Z,25.00
2018-06-16T12:37:04.108Z,25.00
2018-06-16T12:39:36.267Z,25.40
2018-06-16T12:42:08.477Z,25.50
2018-06-16T12:44:40.461Z,25.80
2018-06-16T12:47:12.604Z,25.50
2018-06-16T12:49:44.975Z,25.40
2018-06-16T12:52:17.186Z,25.80
2018-06-16T12:54:49.187Z,25.60
2018-06-16T12:59:52.858Z,25.80
2018-06-16T13:02:25.044Z,26.00
2018-06-16T13:04:57.051Z,26.20
2018-06-16T13:07:29.166Z,26.50
2018-06-16T13:10:01.258Z,26.40
2018-06-16T13:12:33.578Z,26.40
2018-06-16T13:15:05.727Z,26.40
2018-06-16T13:17:37.887Z,26.60
2018-06-16T13:20:09.848Z,26.50
2018-06-16T13:22:42.090Z,26.60
2018-06-16T13:25:14.508Z,26.70
2018-06-16T13:27:46.748Z,26.70
2018-06-16T13:30:18.967Z,27.00
2018-06-16T13:32:51.148Z,26.70
2018-06-16T13:35:23.208Z,26.90
2018-06-16T13:37:55.368Z,27.00
2018-06-16T13:40:27.320Z,26.80
2018-06-16T13:42:59.647Z,26.90
2018-06-16T13:45:31.766Z,26.90
2018-06-16T13:48:03.689Z,26.90
2018-06-16T13:50:35.714Z,26.80
2018-06-16T13:53:07.600Z,26.60
2018-06-16T13:55:39.498Z,27.10
2018-06-16T13:58:11.251Z,27.40
2018-06-16T14:00:43.547Z,27.90
2018-06-16T14:03:15.496Z,27.70
2018-06-16T14:05:47.425Z,27.10
2018-06-16T14:08:19.243Z,27.20
2018-06-16T14:10:51.096Z,27.50
2018-06-16T14:13:22.951Z,27.90
2018-06-16T14:15:54.808Z,27.50
2018-06-16T14:18:27.172Z,27.40
2018-06-16T14:20:59.075Z,27.60
2018-06-16T14:23:30.889Z,27.80
2018-06-16T14:26:02.749Z,27.50
2018-06-16T14:28:34.656Z,27.80
2018-06-16T14:31:06.676Z,27.90
2018-06-16T14:33:38.503Z,28.20
2018-06-16T14:36:10.644Z,28.00
2018-06-16T14:38:42.639Z,28.00
2018-06-16T14:43:45.817Z,28.50
2018-06-16T14:46:17.738Z,27.90
2018-06-16T14:48:49.918Z,28.10
2018-06-16T14:51:21.866Z,28.10
2018-06-16T14:53:53.858Z,28.40
2018-06-16T14:56:25.940Z,28.10
2018-06-16T14:58:58.217Z,27.90
2018-06-16T15:01:30.188Z,27.60
2018-06-16T15:04:02.016Z,27.70
2018-06-16T15:06:34.131Z,27.70
2018-06-16T15:09:09.417Z,28.00
2018-06-16T15:11:41.448Z,27.90
2018-06-16T15:14:13.417Z,27.90
2018-06-16T15:16:45.429Z,28.00
2018-06-16T15:19:17.749Z,27.90
2018-06-16T15:21:50.188Z,28.10
2018-06-16T15:24:22.351Z,28.10
2018-06-16T15:26:54.747Z,27.80
2018-06-16T15:29:27.044Z,27.80
2018-06-16T15:31:59.408Z,28.10
2018-06-16T15:34:31.807Z,27.70
2018-06-16T15:37:04.216Z,27.80
2018-06-16T15:39:36.528Z,27.60
2018-06-16T15:42:09.069Z,27.90
2018-06-16T15:44:41.000Z,28.20
2018-06-16T15:47:12.948Z,28.40
2018-06-16T15:49:44.869Z,28.40
2018-06-16T15:52:16.936Z,27.80
2018-06-16T15:54:49.053Z,27.80
2018-06-16T15:57:21.148Z,27.80
2018-06-16T15:59:53.279Z,28.30
2018-06-16T16:02:25.648Z,27.60
2018-06-16T16:04:57.661Z,27.70
2018-06-16T16:07:29.716Z,28.10
2018-06-16T16:10:02.109Z,28.10
2018-06-16T16:15:05.956Z,27.60
2018-06-16T16:17:37.993Z,27.30
2018-06-16T16:20:09.995Z,27.90
2018-06-16T16:22:42.375Z,27.80
2018-06-16T16:25:14.384Z,27.80
2018-06-16T16:27:46.268Z,27.60
2018-06-16T16:30:18.280Z,28.10
2018-06-16T16:32:50.297Z,28.50
2018-06-16T16:35:22.208Z,29.00
2018-06-16T16:37:54.304Z,28.60
2018-06-16T16:40:26.828Z,28.20
2018-06-16T16:42:58.860Z,28.00
2018-06-16T16:45:31.248Z,28.60
2018-06-16T16:48:03.667Z,27.80
2018-06-16T16:50:36.268Z,27.40
2018-06-16T16:53:08.535Z,27.50
2018-06-16T16:55:40.465Z,27.60
2018-06-16T16:58:12.399Z,28.30
2018-06-16T17:00:44.487Z,28.40
2018-06-16T17:05:47.717Z,28.40
2018-06-16T17:08:20.188Z,28.00
2018-06-16T17:10:52.476Z,28.40
2018-06-16T17:13:24.791Z,27.80
2018-06-16T17:18:28.888Z,27.10
2018-06-16T17:26:04.247Z,27.50
2018-06-16T17:28:36.181Z,28.10
2018-06-16T17:33:40.017Z,27.70
2018-06-16T17:36:12.288Z,26.80
2018-06-16T17:38:44.196Z,26.10
2018-06-16T17:41:16.112Z,24.80
2018-06-16T17:43:48.228Z,24.60
2018-06-16T17:46:22.379Z,24.80
2018-06-16T17:51:26.489Z,24.40
2018-06-16T17:53:58.410Z,24.30
2018-06-16T17:56:30.567Z,24.50
2018-06-16T17:59:02.856Z,23.70
2018-06-16T18:01:35.208Z,23.20
2018-06-16T18:04:07.451Z,23.50
2018-06-16T18:09:12.908Z,23.10
2018-06-16T18:14:19.076Z,22.70
2018-06-16T18:19:22.887Z,22.00
2018-06-16T18:29:28.949Z,22.10
2018-06-16T18:34:32.128Z,21.40
2018-06-16T18:37:04.005Z,21.50
2018-06-16T18:39:35.955Z,21.40
2018-06-16T18:42:08.076Z,21.20
2018-06-16T18:47:12.220Z,21.30
2018-06-16T18:49:44.220Z,21.10
2018-06-16T18:52:16.427Z,20.90
2018-06-16T18:54:48.656Z,20.70
2018-06-16T18:57:20.907Z,20.80
2018-06-16T18:59:52.776Z,20.50
2018-06-16T19:02:24.549Z,20.40
2018-06-16T19:04:57.236Z,20.40
2018-06-16T19:07:29.307Z,20.50
2018-06-16T19:10:01.340Z,20.40
2018-06-16T19:12:33.190Z,20.50
2018-06-16T19:15:05.332Z,20.60
2018-06-16T19:17:37.367Z,20.40
2018-06-16T19:20:09.308Z,20.40
2018-06-16T19:22:41.140Z,20.40
2018-06-16T19:27:44.461Z,20.00
2018-06-16T19:32:48.011Z,20.20
2018-06-16T19:37:51.708Z,20.00
2018-06-16T19:42:55.908Z,20.30
2018-06-16T19:47:59.721Z,20.40
2018-06-16T19:53:04.029Z,20.30
2018-06-16T19:55:36.268Z,20.20
2018-06-16T19:58:08.868Z,20.30
2018-06-16T20:00:40.900Z,20.30
2018-06-16T20:03:13.120Z,20.30
2018-06-16T20:05:45.407Z,20.10
2018-06-16T20:10:49.049Z,20.00
2018-06-16T20:13:21.296Z,20.10
2018-06-16T20:18:24.996Z,19.90
2018-06-16T20:20:57.596Z,19.40
2018-06-16T20:26:01.407Z,19.40
2018-06-16T20:33:36.216Z,19.40
2018-06-16T20:38:39.405Z,19.40
2018-06-16T20:43:42.794Z,19.20
2018-06-16T20:48:45.746Z,19.60
2018-06-16T20:51:17.593Z,19.60
2018-06-16T20:53:49.567Z,19.70
2018-06-16T20:56:21.421Z,19.30
2018-06-16T20:58:53.227Z,19.10
2018-06-16T21:03:57.660Z,18.80
2018-06-16T21:14:03.232Z,18.70
2018-06-16T21:16:35.174Z,18.70
2018-06-16T21:19:07.479Z,18.60
2018-06-16T21:21:39.430Z,18.40
2018-06-16T21:26:42.828Z,18.30
2018-06-16T21:29:14.705Z,18.40
2018-06-16T21:31:46.523Z,18.30
2018-06-16T21:34:18.408Z,18.40
2018-06-16T21:36:50.354Z,18.50
2018-06-16T21:39:22.213Z,18.40
2018-06-16T21:44:25.633Z,18.00
2018-06-16T21:46:57.476Z,18.00
2018-06-16T21:52:00.942Z,18.00
2018-06-16T21:54:32.852Z,17.80
2018-06-16T21:57:04.844Z,17.70
2018-06-16T21:59:36.660Z,17.40
2018-06-16T22:02:08.898Z,17.40
2018-06-16T22:04:40.717Z,17.50
2018-06-16T22:07:12.674Z,17.30
2018-06-16T22:12:15.738Z,17.30
2018-06-16T22:17:19.229Z,17.50
2018-06-16T22:19:51.239Z,17.40
2018-06-16T22:22:23.114Z,17.40
2018-06-16T22:32:29.457Z,17.50
2018-06-16T22:40:03.903Z,17.20
2018-06-16T22:42:35.953Z,17.40
2018-06-16T22:50:10.392Z,17.00
2018-06-16T22:52:42.263Z,17.20
2018-06-16T22:55:14.189Z,16.90
2018-06-16T22:57:46.112Z,16.80
2018-06-16T23:00:27.048Z,16.80
2018-06-16T23:02:59.717Z,16.80
2018-06-16T23:08:02.924Z,17.00
2018-06-16T23:13:06.164Z,16.90
2018-06-16T23:15:38.048Z,16.90
2018-06-16T23:18:10.037Z,16.80
2018-06-16T23:23:13.358Z,16.90
2018-06-16T23:25:45.284Z,16.60
2018-06-16T23:28:18.168Z,16.20
2018-06-16T23:30:50.121Z,16.30
2018-06-16T23:33:22.067Z,16.20
2018-06-16T23:35:53.975Z,16.20
2018-06-16T23:38:27.473Z,16.20
2018-06-16T23:41:00.013Z,16.00
2018-06-16T23:43:31.914Z,16.20
2018-06-16T23:46:03.819Z,16.00
2018-06-16T23:48:35.707Z,16.10
2018-06-16T23:51:08.361Z,16.30
2018-06-16T23:53:40.216Z,16.30
2018-06-16T23:58:43.695Z,16.40
